• Join FlightAware (Why Join?)
  • Login
  • US Flag 
03:53AM EDT


 

Airport Tracker/Info


-or-


 

Live Flight TrackerFlight Track Log ✈ AWE3417 ✈ 30-Apr-2013 ✈ KDCA - KCMH

Flight Track Log - Related Links

Times and Time Zones

All times are in EDT time to prevent confusion due to time zone crossing. See the AWE3417 flight status page for this flight to view local times or setup timezone preferences in your user account.

Time Position Orientation Groundspeed Altitude Reporting Facility
EDT Latitude Longitude Course Direction KTS MPH feet Rate Location/Type
07:48PM 38.9000 -77.0667 274° West 190 219 1,800  Level Potomac TRACON
07:49PM 38.9500 -77.1333 314° West 257 296 4,000 2,820 Climbing Potomac TRACON
07:50PM 38.9167 -77.3814 270° West  Level FlightAware Approximate
07:50PM 38.9833 -77.2000 303° West 288 331 7,200  Level Potomac TRACON
07:51PM 38.9333 -77.5004 270° West  Level FlightAware Approximate
07:51PM 39.0167 -77.3000 293° West 288 331 10,700  Level Potomac TRACON
07:52PM 38.9333 -77.6257 270° West  Level FlightAware Approximate
07:52PM 39.0333 -77.4167 280° West 340 391 12,300  Level Potomac TRACON
07:53PM 38.9333 -77.7509 270° West  Level FlightAware Approximate
07:53PM 39.0167 -77.5333 260° West 353 406 15,000  Level Potomac TRACON
07:54PM 38.9385 -77.8679 274° West  Level FlightAware Approximate
07:54PM 39.0083 -77.6486 265° West 349 402 17,000  Level Washington Center
07:55PM 39.0000 -77.7686 265° West 361 415 17,300 1,140 Climbing Washington Center
07:56PM 38.9869 -77.9178 264° West 380 437 19,300 1,980 Climbing Washington Center
07:57PM 38.9736 -78.0561 263° West 390 449 21,300 1,680 Climbing Washington Center
07:58PM 38.9622 -78.2000 264° West 395 455 22,800 1,560 Climbing Washington Center
07:59PM 38.9653 -78.3469 272° West 405 466 24,400 1,440 Climbing Washington Center
08:00PM 38.9700 -78.4992 272° West 418 481 25,700 1,200 Climbing Washington Center
08:01PM 38.9744 -78.6542 272° West 429 494 26,900 960 Climbing Washington Center
08:02PM 38.9869 -78.8122 276° West 440 506 27,700 900 Climbing Washington Center
08:03PM 38.9992 -78.9731 276° West 446 513 28,700 900 Climbing Washington Center
08:04PM 39.0111 -79.1394 275° West 457 526 29,500 600 Climbing Washington Center
08:05PM 39.0231 -79.3031 275° West 462 532 30,000 240 Climbing Washington Center
08:06PM 39.0342 -79.4744 275° West 468 539 30,000  Level Washington Center
08:07PM 39.0481 -79.6250 277° West 485 558 30,000  Level Washington Center
08:08PM 39.0586 -79.7994 275° West 485 558 30,000  Level Washington Center
08:09PM 39.0692 -79.9739 275° West 485 558 30,000  Level Washington Center
08:10PM 39.0739 -80.1394 272° West 482 555 30,000  Level Indianapolis Center
08:11PM 39.0856 -80.3108 275° West 482 555 30,000  Level Indianapolis Center
08:12PM 39.0967 -80.5172 274° West 482 555 30,000  Level Indianapolis Center
08:13PM 39.1106 -80.6897 276° West 486 559 30,000  Level Indianapolis Center
08:14PM 39.1547 -80.8511 289° West 482 555 30,000  Level Indianapolis Center
08:15PM 39.2033 -81.0094 292° West 478 550 30,000 -300 Level Indianapolis Center
08:17PM 39.2517 -81.1731 291° West 488 562 29,500 -1,500 Descending Indianapolis Center
08:18PM 39.2983 -81.3342 291° West 484 557 27,000 -2,640 Descending Indianapolis Center
08:19PM 39.3519 -81.5178 291° West 460 529 24,100 -2,640 Descending Indianapolis Center
08:20PM 39.3956 -81.6653 291° West 447 514 21,700 -2,220 Descending Indianapolis Center
08:21PM 39.4350 -81.8061 290° West 425 489 19,600 -2,040 Descending Indianapolis Center
08:22PM 39.4733 -81.9414 290° West 411 473 17,500 -2,220 Descending Indianapolis Center
08:22PM 39.4944 -82.0183 290° West 391 450 16,200 -2,220 Descending Indianapolis Center
08:23PM 39.5117 -82.0719 293° West 397 457 15,300 -1,980 Descending Indianapolis Center
08:24PM 39.5506 -82.1969 292° West 386 444 13,400 -2,040 Descending Indianapolis Center
08:25PM 39.6128 -82.3303 301° West 370 426 11,100 -1,740 Descending Indianapolis Center
08:26PM 39.6592 -82.4328 300° West 367 422 10,000 -600 Descending Indianapolis Center
08:27PM 39.7128 -82.5439 302° West 366 421 10,000  Level Indianapolis Center
08:28PM 39.7683 -82.6558 303° West 368 423 10,000 -240 Level Indianapolis Center
08:29PM 39.8181 -82.7561 303° West 318 366 9,600 -1,320 Descending Indianapolis Center
08:30PM 39.8603 -82.8450 302° West 278 320 7,400 -2,220 Descending Indianapolis Center
08:31PM 39.9050 -82.9289 305° West 276 318 5,200 -1,920 Descending Indianapolis Center
08:32PM 39.9458 -83.0044 305° West 243 280 3,600 -1,500 Descending Indianapolis Center
08:32PM 39.9536 -83.0153 313° West 265 305 3,300 -720 Descending Indianapolis Center
08:33PM 40.0006 -83.0325 344° North 179 206 2,900 -600 Descending Indianapolis Center
08:33PM 40.0058 -83.0261 43° Northeast 218 251 2,700 -1,140 Descending Indianapolis Center
08:34PM 40.0061 -82.9814 90° East 144 166 1,800 -1,200 Descending Indianapolis Center
08:34PM 40.0058 -82.9642 91° East 164 189 1,500 -720 Descending Indianapolis Center
08:35PM 40.0033 -82.9294 95° East 123 142 1,100 -540 Descending Indianapolis Center
08:35PM 40.0039 -82.9244 82° East 143 165 1,000 -360 Descending Indianapolis Center